sensor_id;sensor_type;location;lat;lon;timestamp;pressure;altitude;pressure_sealevel;temperature;humidity
59055;BME280;44845;51.444;7.460;2022-12-07T00:00:38;99781.53;;;5.33;81.22
59055;BME280;44845;51.444;7.460;2022-12-07T00:03:04;99781.53;;;5.33;81.21
59055;BME280;44845;51.444;7.460;2022-12-07T00:05:29;99773.75;;;5.35;80.90
59055;BME280;44845;51.444;7.460;2022-12-07T00:07:54;99774.63;;;5.37;81.13
59055;BME280;44845;51.444;7.460;2022-12-07T00:10:20;99775.50;;;5.36;81.13
59055;BME280;44845;51.444;7.460;2022-12-07T00:12:45;99773.63;;;5.25;81.38
59055;BME280;44845;51.444;7.460;2022-12-07T00:15:10;99779.78;;;5.32;81.34
59055;BME280;44845;51.444;7.460;2022-12-07T00:17:36;99780.66;;;5.33;81.01
59055;BME280;44845;51.444;7.460;2022-12-07T00:20:01;99778.09;;;5.36;81.36
59055;BME280;44845;51.444;7.460;2022-12-07T00:22:27;99772.03;;;5.37;81.15
59055;BME280;44845;51.444;7.460;2022-12-07T00:24:52;99772.91;;;5.39;81.04
59055;BME280;44845;51.444;7.460;2022-12-07T00:27:17;99770.31;;;5.39;80.80
59055;BME280;44845;51.444;7.460;2022-12-07T00:29:42;99770.31;;;5.36;81.12
59055;BME280;44845;51.444;7.460;2022-12-07T00:32:08;99775.50;;;5.37;81.05
59055;BME280;44845;51.444;7.460;2022-12-07T00:34:33;99766.88;;;5.40;80.89
59055;BME280;44845;51.444;7.460;2022-12-07T00:36:59;99767.75;;;5.42;80.86
59055;BME280;44845;51.444;7.460;2022-12-07T00:39:24;99766.94;;;5.45;80.90
59055;BME280;44845;51.444;7.460;2022-12-07T00:41:49;99767.78;;;5.44;81.13
59055;BME280;44845;51.444;7.460;2022-12-07T00:44:15;99764.28;;;5.40;81.07
59055;BME280;44845;51.444;7.460;2022-12-07T00:46:40;99761.72;;;5.43;81.03
59055;BME280;44845;51.444;7.460;2022-12-07T00:49:05;99765.13;;;5.39;81.10
59055;BME280;44845;51.444;7.460;2022-12-07T00:51:31;99766.84;;;5.38;81.18
59055;BME280;44845;51.444;7.460;2022-12-07T00:53:56;99759.91;;;5.37;81.33
59055;BME280;44845;51.444;7.460;2022-12-07T00:56:24;99758.19;;;5.41;81.18
59055;BME280;44845;51.444;7.460;2022-12-07T00:58:54;99756.53;;;5.46;81.10
59055;BME280;44845;51.444;7.460;2022-12-07T01:01:21;99744.34;;;5.42;81.21
59055;BME280;44845;51.444;7.460;2022-12-07T01:03:47;99751.31;;;5.43;81.14
59055;BME280;44845;51.444;7.460;2022-12-07T01:06:17;99749.59;;;5.45;80.92
59055;BME280;44845;51.444;7.460;2022-12-07T01:08:43;99741.75;;;5.42;81.12
59055;BME280;44845;51.444;7.460;2022-12-07T01:11:12;99756.53;;;5.46;81.16
59055;BME280;44845;51.444;7.460;2022-12-07T01:13:38;99755.66;;;5.46;80.95
59055;BME280;44845;51.444;7.460;2022-12-07T01:16:05;99754.75;;;5.42;81.05
59055;BME280;44845;51.444;7.460;2022-12-07T01:18:34;99749.59;;;5.45;81.08
59055;BME280;44845;51.444;7.460;2022-12-07T01:21:10;99753.94;;;5.45;81.17
59055;BME280;44845;51.444;7.460;2022-12-07T01:23:36;99753.94;;;5.45;81.03
59055;BME280;44845;51.444;7.460;2022-12-07T01:26:07;99747.00;;;5.45;81.19
59055;BME280;44845;51.444;7.460;2022-12-07T01:28:34;99747.88;;;5.47;81.06
59055;BME280;44845;51.444;7.460;2022-12-07T01:31:14;99752.22;;;5.47;81.25
59055;BME280;44845;51.444;7.460;2022-12-07T01:33:44;99752.25;;;5.50;81.07
59055;BME280;44845;51.444;7.460;2022-12-07T01:36:18;99745.28;;;5.49;81.04
59055;BME280;44845;51.444;7.460;2022-12-07T01:38:45;99743.53;;;5.45;81.22
59055;BME280;44845;51.444;7.460;2022-12-07T01:41:11;99748.72;;;5.45;81.38
59055;BME280;44845;51.444;7.460;2022-12-07T01:46:38;99756.56;;;5.49;81.15
59055;BME280;44845;51.444;7.460;2022-12-07T01:49:05;99753.09;;;5.47;81.28
59055;BME280;44845;51.444;7.460;2022-12-07T01:51:31;99753.97;;;5.49;81.01
59055;BME280;44845;51.444;7.460;2022-12-07T01:53:56;99746.13;;;5.43;81.17
59055;BME280;44845;51.444;7.460;2022-12-07T01:56:24;99742.69;;;5.47;81.27
59055;BME280;44845;51.444;7.460;2022-12-07T01:58:51;99747.88;;;5.47;81.21
59055;BME280;44845;51.444;7.460;2022-12-07T02:01:17;99751.31;;;5.46;81.18
59055;BME280;44845;51.444;7.460;2022-12-07T02:03:44;99748.75;;;5.48;81.29
59055;BME280;44845;51.444;7.460;2022-12-07T02:06:13;99751.38;;;5.49;81.13
59055;BME280;44845;51.444;7.460;2022-12-07T02:08:42;99740.09;;;5.47;81.26
59055;BME280;44845;51.444;7.460;2022-12-07T02:11:08;99742.69;;;5.47;81.15
59055;BME280;44845;51.444;7.460;2022-12-07T02:13:36;99739.25;;;5.50;81.07
59055;BME280;44845;51.444;7.460;2022-12-07T02:21:11;99738.41;;;5.52;81.06
59055;BME280;44845;51.444;7.460;2022-12-07T02:26:28;99737.47;;;5.47;81.23
59055;BME280;44845;51.444;7.460;2022-12-07T02:29:23;99730.56;;;5.48;81.29
59055;BME280;44845;51.444;7.460;2022-12-07T02:32:07;99733.16;;;5.51;81.04
59055;BME280;44845;51.444;7.460;2022-12-07T02:34:48;99734.06;;;5.51;81.02
59055;BME280;44845;51.444;7.460;2022-12-07T02:37:25;99738.38;;;5.51;81.10
59055;BME280;44845;51.444;7.460;2022-12-07T02:42:40;99747.88;;;5.47;80.80
59055;BME280;44845;51.444;7.460;2022-12-07T02:45:10;99741.84;;;5.50;80.67
59055;BME280;44845;51.444;7.460;2022-12-07T02:47:37;99741.84;;;5.51;80.50
59055;BME280;44845;51.444;7.460;2022-12-07T02:50:05;99743.56;;;5.49;80.81
59055;BME280;44845;51.444;7.460;2022-12-07T02:52:30;99744.44;;;5.50;80.46
59055;BME280;44845;51.444;7.460;2022-12-07T02:54:56;99739.19;;;5.45;80.60
59055;BME280;44845;51.444;7.460;2022-12-07T02:57:35;99742.69;;;5.49;80.59
59055;BME280;44845;51.444;7.460;2022-12-07T03:00:09;99742.72;;;5.50;80.32
59055;BME280;44845;51.444;7.460;2022-12-07T03:03:01;99733.13;;;5.46;80.71
59055;BME280;44845;51.444;7.460;2022-12-07T03:08:31;99743.56;;;5.48;80.58
59055;BME280;44845;51.444;7.460;2022-12-07T03:10:58;99731.41;;;5.48;80.55
59055;BME280;44845;51.444;7.460;2022-12-07T03:16:17;99738.38;;;5.49;80.55
59055;BME280;44845;51.444;7.460;2022-12-07T03:18:55;99739.22;;;5.48;80.54
59055;BME280;44845;51.444;7.460;2022-12-07T03:21:27;99734.88;;;5.47;80.49
59055;BME280;44845;51.444;7.460;2022-12-07T03:23:57;99737.44;;;5.44;80.50
59055;BME280;44845;51.444;7.460;2022-12-07T03:26:30;99746.13;;;5.45;80.55
59055;BME280;44845;51.444;7.460;2022-12-07T03:28:59;99741.75;;;5.44;80.29
59055;BME280;44845;51.444;7.460;2022-12-07T03:31:32;99737.44;;;5.46;80.01
59055;BME280;44845;51.444;7.460;2022-12-07T03:36:39;99728.75;;;5.40;79.83
59055;BME280;44845;51.444;7.460;2022-12-07T03:39:26;99729.59;;;5.41;80.29
59055;BME280;44845;51.444;7.460;2022-12-07T03:41:54;99734.78;;;5.38;80.37
59055;BME280;44845;51.444;7.460;2022-12-07T03:44:21;99729.59;;;5.39;79.94
59055;BME280;44845;51.444;7.460;2022-12-07T03:49:45;99726.09;;;5.39;79.85
59055;BME280;44845;51.444;7.460;2022-12-07T03:54:54;99736.50;;;5.37;80.02
59055;BME280;44845;51.444;7.460;2022-12-07T03:57:21;99733.03;;;5.37;79.87
59055;BME280;44845;51.444;7.460;2022-12-07T03:59:48;99733.91;;;5.36;79.52
59055;BME280;44845;51.444;7.460;2022-12-07T04:02:14;99734.69;;;5.32;79.59
59055;BME280;44845;51.444;7.460;2022-12-07T04:04:41;99739.94;;;5.33;79.74
59055;BME280;44845;51.444;7.460;2022-12-07T04:07:07;99735.56;;;5.31;79.55
59055;BME280;44845;51.444;7.460;2022-12-07T04:09:33;99734.69;;;5.30;79.80
59055;BME280;44845;51.444;7.460;2022-12-07T04:11:58;99729.44;;;5.25;79.50
59055;BME280;44845;51.444;7.460;2022-12-07T04:14:23;99725.94;;;5.25;79.51
59055;BME280;44845;51.444;7.460;2022-12-07T04:16:55;99737.25;;;5.28;79.74
59055;BME280;44845;51.444;7.460;2022-12-07T04:19:29;99739.00;;;5.29;79.61
59055;BME280;44845;51.444;7.460;2022-12-07T04:21:56;99736.41;;;5.28;79.82
59055;BME280;44845;51.444;7.460;2022-12-07T04:24:21;99732.03;;;5.28;79.27
59055;BME280;44845;51.444;7.460;2022-12-07T04:26:47;99732.03;;;5.25;79.49
59055;BME280;44845;51.444;7.460;2022-12-07T04:29:13;99730.22;;;5.21;79.40
59055;BME280;44845;51.444;7.460;2022-12-07T04:31:39;99726.78;;;5.21;79.90
59055;BME280;44845;51.444;7.460;2022-12-07T04:34:05;99727.56;;;5.16;80.04
59055;BME280;44845;51.444;7.460;2022-12-07T04:36:31;99729.38;;;5.22;79.82
59055;BME280;44845;51.444;7.460;2022-12-07T04:38:57;99733.75;;;5.23;79.55
59055;BME280;44845;51.444;7.460;2022-12-07T04:41:22;99723.28;;;5.20;79.64
59055;BME280;44845;51.444;7.460;2022-12-07T04:43:53;99725.91;;;5.22;79.67
59055;BME280;44845;51.444;7.460;2022-12-07T04:46:19;99729.38;;;5.22;79.44
59055;BME280;44845;51.444;7.460;2022-12-07T04:48:44;99721.59;;;5.22;79.77
59055;BME280;44845;51.444;7.460;2022-12-07T04:51:09;99731.97;;;5.22;79.24
59055;BME280;44845;51.444;7.460;2022-12-07T04:53:35;99725.00;;;5.18;79.69
59055;BME280;44845;51.444;7.460;2022-12-07T04:56:00;99726.72;;;5.17;79.56
59055;BME280;44845;51.444;7.460;2022-12-07T04:58:26;99720.66;;;5.17;79.59
59055;BME280;44845;51.444;7.460;2022-12-07T05:00:54;99726.75;;;5.19;79.77
59055;BME280;44845;51.444;7.460;2022-12-07T05:03:20;99719.81;;;5.18;79.50
59055;BME280;44845;51.444;7.460;2022-12-07T05:05:45;99725.84;;;5.15;79.66
59055;BME280;44845;51.444;7.460;2022-12-07T05:08:11;99715.50;;;5.18;79.50
59055;BME280;44845;51.444;7.460;2022-12-07T05:10:38;99718.97;;;5.21;79.66
59055;BME280;44845;51.444;7.460;2022-12-07T05:13:03;99719.81;;;5.21;79.15
59055;BME280;44845;51.444;7.460;2022-12-07T05:15:29;99719.81;;;5.21;79.35
59055;BME280;44845;51.444;7.460;2022-12-07T05:17:54;99721.59;;;5.22;79.31
59055;BME280;44845;51.444;7.460;2022-12-07T05:20:19;99718.97;;;5.22;79.55
59055;BME280;44845;51.444;7.460;2022-12-07T05:22:45;99718.09;;;5.18;79.43
59055;BME280;44845;51.444;7.460;2022-12-07T05:25:10;99730.22;;;5.21;79.22
59055;BME280;44845;51.444;7.460;2022-12-07T05:27:35;99725.00;;;5.18;79.38
59055;BME280;44845;51.444;7.460;2022-12-07T05:30:01;99725.00;;;5.18;79.43
59055;BME280;44845;51.444;7.460;2022-12-07T05:32:26;99724.13;;;5.17;79.45
59055;BME280;44845;51.444;7.460;2022-12-07T05:34:52;99718.97;;;5.21;79.37
59055;BME280;44845;51.444;7.460;2022-12-07T05:37:19;99715.50;;;5.20;78.99
59055;BME280;44845;51.444;7.460;2022-12-07T05:39:45;99714.56;;;5.15;79.10
59055;BME280;44845;51.444;7.460;2022-12-07T05:42:10;99721.53;;;5.16;79.42
59055;BME280;44845;51.444;7.460;2022-12-07T05:44:40;99713.69;;;5.14;79.11
59055;BME280;44845;51.444;7.460;2022-12-07T05:47:05;99711.03;;;5.10;79.34
59055;BME280;44845;51.444;7.460;2022-12-07T05:49:31;99709.38;;;5.15;79.34
59055;BME280;44845;51.444;7.460;2022-12-07T05:51:56;99712.81;;;5.12;79.38
59055;BME280;44845;51.444;7.460;2022-12-07T05:54:22;99712.75;;;5.07;79.49
59055;BME280;44845;51.444;7.460;2022-12-07T05:56:47;99717.06;;;5.05;79.52
59055;BME280;44845;51.444;7.460;2022-12-07T05:59:13;99709.31;;;5.09;79.28
59055;BME280;44845;51.444;7.460;2022-12-07T06:01:52;99713.63;;;5.08;79.53
59055;BME280;44845;51.444;7.460;2022-12-07T06:04:19;99711.81;;;5.04;79.42
59055;BME280;44845;51.444;7.460;2022-12-07T06:06:45;99708.38;;;5.06;79.62
59055;BME280;44845;51.444;7.460;2022-12-07T06:09:11;99706.69;;;5.09;79.38
59055;BME280;44845;51.444;7.460;2022-12-07T06:11:37;99708.47;;;5.11;79.26
59055;BME280;44845;51.444;7.460;2022-12-07T06:14:21;99716.28;;;5.11;79.35
59055;BME280;44845;51.444;7.460;2022-12-07T06:16:47;99708.38;;;5.06;78.90
59055;BME280;44845;51.444;7.460;2022-12-07T06:19:12;99707.53;;;5.07;79.21
59055;BME280;44845;51.444;7.460;2022-12-07T06:21:40;99702.34;;;5.07;79.33
59055;BME280;44845;51.444;7.460;2022-12-07T06:24:05;99699.75;;;5.06;79.39
59055;BME280;44845;51.444;7.460;2022-12-07T06:26:31;99717.06;;;5.07;79.22
59055;BME280;44845;51.444;7.460;2022-12-07T06:28:56;99715.28;;;5.04;79.29
59055;BME280;44845;51.444;7.460;2022-12-07T06:31:21;99713.59;;;5.06;79.62
59055;BME280;44845;51.444;7.460;2022-12-07T06:33:47;99719.66;;;5.07;79.62
59055;BME280;44845;51.444;7.460;2022-12-07T06:36:13;99716.19;;;5.06;79.26
59055;BME280;44845;51.444;7.460;2022-12-07T06:38:38;99715.41;;;5.12;78.98
59055;BME280;44845;51.444;7.460;2022-12-07T06:41:04;99723.97;;;5.06;78.95
59055;BME280;44845;51.444;7.460;2022-12-07T06:43:29;99718.75;;;5.03;79.29
59055;BME280;44845;51.444;7.460;2022-12-07T06:45:55;99724.91;;;5.09;79.12
59055;BME280;44845;51.444;7.460;2022-12-07T06:48:20;99719.59;;;5.02;79.16
59055;BME280;44845;51.444;7.460;2022-12-07T06:50:47;99726.56;;;5.03;79.09
59055;BME280;44845;51.444;7.460;2022-12-07T06:53:13;99726.56;;;5.03;79.27
59055;BME280;44845;51.444;7.460;2022-12-07T06:55:38;99723.09;;;5.04;79.10
59055;BME280;44845;51.444;7.460;2022-12-07T06:58:04;99730.88;;;5.03;78.86
59055;BME280;44845;51.444;7.460;2022-12-07T07:00:29;99725.72;;;5.06;79.03
59055;BME280;44845;51.444;7.460;2022-12-07T07:02:55;99727.50;;;5.09;79.01
59055;BME280;44845;51.444;7.460;2022-12-07T07:05:20;99727.47;;;5.07;78.87
59055;BME280;44845;51.444;7.460;2022-12-07T07:07:49;99736.09;;;5.03;78.70
59055;BME280;44845;51.444;7.460;2022-12-07T07:10:15;99722.25;;;5.05;78.82
59055;BME280;44845;51.444;7.460;2022-12-07T07:12:41;99721.38;;;5.05;78.78
59055;BME280;44845;51.444;7.460;2022-12-07T07:15:06;99726.56;;;5.03;78.80
59055;BME280;44845;51.444;7.460;2022-12-07T07:17:32;99726.56;;;5.03;78.59
59055;BME280;44845;51.444;7.460;2022-12-07T07:19:57;99736.09;;;5.03;78.58
59055;BME280;44845;51.444;7.460;2022-12-07T07:22:23;99737.75;;;4.99;78.85
59055;BME280;44845;51.444;7.460;2022-12-07T07:24:48;99738.63;;;4.98;78.92
59055;BME280;44845;51.444;7.460;2022-12-07T07:27:13;99730.84;;;5.00;78.59
59055;BME280;44845;51.444;7.460;2022-12-07T07:29:39;99741.16;;;4.93;79.25
59055;BME280;44845;51.444;7.460;2022-12-07T07:32:04;99738.56;;;4.95;79.14
59055;BME280;44845;51.444;7.460;2022-12-07T07:34:29;99743.78;;;4.96;78.94
59055;BME280;44845;51.444;7.460;2022-12-07T07:36:55;99743.78;;;4.96;78.88
59055;BME280;44845;51.444;7.460;2022-12-07T07:39:20;99743.81;;;4.98;78.49
59055;BME280;44845;51.444;7.460;2022-12-07T07:41:46;99740.34;;;4.96;78.77
59055;BME280;44845;51.444;7.460;2022-12-07T07:44:11;99742.06;;;4.97;78.89
59055;BME280;44845;51.444;7.460;2022-12-07T07:46:36;99740.34;;;4.96;78.39
59055;BME280;44845;51.444;7.460;2022-12-07T07:49:02;99739.44;;;4.94;78.34
59055;BME280;44845;51.444;7.460;2022-12-07T07:51:27;99738.47;;;4.86;78.42
59055;BME280;44845;51.444;7.460;2022-12-07T07:53:52;99742.81;;;4.88;78.63
59055;BME280;44845;51.444;7.460;2022-12-07T07:56:18;99741.94;;;4.86;78.60
59055;BME280;44845;51.444;7.460;2022-12-07T07:58:43;99747.00;;;4.78;78.69
59055;BME280;44845;51.444;7.460;2022-12-07T08:01:09;99742.72;;;4.80;78.68
59055;BME280;44845;51.444;7.460;2022-12-07T08:03:34;99745.31;;;4.80;78.70
59055;BME280;44845;51.444;7.460;2022-12-07T08:06:02;99742.72;;;4.82;78.34
59055;BME280;44845;51.444;7.460;2022-12-07T08:08:27;99738.34;;;4.79;78.34
59055;BME280;44845;51.444;7.460;2022-12-07T08:10:53;99752.28;;;4.81;78.40
59055;BME280;44845;51.444;7.460;2022-12-07T08:13:18;99750.50;;;4.80;78.29
59055;BME280;44845;51.444;7.460;2022-12-07T08:15:46;99756.59;;;4.81;78.09
59055;BME280;44845;51.444;7.460;2022-12-07T08:18:12;99755.63;;;4.74;77.99
59055;BME280;44845;51.444;7.460;2022-12-07T08:20:38;99750.44;;;4.77;78.17
59055;BME280;44845;51.444;7.460;2022-12-07T08:23:05;99759.13;;;4.76;78.27
59055;BME280;44845;51.444;7.460;2022-12-07T08:25:31;99757.28;;;4.69;78.35
59055;BME280;44845;51.444;7.460;2022-12-07T08:27:56;99759.00;;;4.70;78.13
59055;BME280;44845;51.444;7.460;2022-12-07T08:30:22;99756.53;;;4.76;78.33
59055;BME280;44845;51.444;7.460;2022-12-07T08:32:48;99757.41;;;4.78;78.37
59055;BME280;44845;51.444;7.460;2022-12-07T08:35:14;99753.94;;;4.79;78.37
59055;BME280;44845;51.444;7.460;2022-12-07T08:37:40;99755.69;;;4.80;78.57
59055;BME280;44845;51.444;7.460;2022-12-07T08:40:07;99759.19;;;4.82;78.51
59055;BME280;44845;51.444;7.460;2022-12-07T08:42:33;99754.00;;;4.82;78.52
59055;BME280;44845;51.444;7.460;2022-12-07T08:45:06;99763.56;;;4.85;78.40
59055;BME280;44845;51.444;7.460;2022-12-07T08:47:31;99765.34;;;4.88;78.49
59055;BME280;44845;51.444;7.460;2022-12-07T08:49:57;99767.09;;;4.90;78.52
59055;BME280;44845;51.444;7.460;2022-12-07T08:52:29;99762.78;;;4.91;78.46
59055;BME280;44845;51.444;7.460;2022-12-07T08:54:55;99761.91;;;4.90;78.67
59055;BME280;44845;51.444;7.460;2022-12-07T08:57:20;99757.66;;;4.97;78.63
59055;BME280;44845;51.444;7.460;2022-12-07T08:59:48;99758.59;;;5.02;78.74
59055;BME280;44845;51.444;7.460;2022-12-07T09:02:13;99754.28;;;5.04;78.56
59055;BME280;44845;51.444;7.460;2022-12-07T09:04:39;99762.16;;;5.09;78.75
59055;BME280;44845;51.444;7.460;2022-12-07T09:07:04;99763.06;;;5.13;78.29
59055;BME280;44845;51.444;7.460;2022-12-07T09:09:30;99762.25;;;5.17;78.22
59055;BME280;44845;51.444;7.460;2022-12-07T09:11:55;99757.94;;;5.19;78.52
59055;BME280;44845;51.444;7.460;2022-12-07T09:14:21;99758.78;;;5.16;78.49
59055;BME280;44845;51.444;7.460;2022-12-07T09:16:46;99759.66;;;5.17;78.54
59055;BME280;44845;51.444;7.460;2022-12-07T09:19:11;99751.03;;;5.21;78.76
59055;BME280;44845;51.444;7.460;2022-12-07T09:21:37;99756.31;;;5.26;78.45
59055;BME280;44845;51.444;7.460;2022-12-07T09:24:02;99753.66;;;5.23;78.39
59055;BME280;44845;51.444;7.460;2022-12-07T09:26:28;99754.56;;;5.26;78.26
59055;BME280;44845;51.444;7.460;2022-12-07T09:28:53;99758.06;;;5.28;77.98
59055;BME280;44845;51.444;7.460;2022-12-07T09:31:18;99758.94;;;5.29;78.25
59055;BME280;44845;51.444;7.460;2022-12-07T09:33:44;99762.41;;;5.29;78.49
59055;BME280;44845;51.444;7.460;2022-12-07T09:36:09;99756.38;;;5.31;78.45
59055;BME280;44845;51.444;7.460;2022-12-07T09:38:35;99765.94;;;5.33;78.37
59055;BME280;44845;51.444;7.460;2022-12-07T09:41:05;99758.03;;;5.27;78.66
59055;BME280;44845;51.444;7.460;2022-12-07T09:43:31;99752.06;;;5.34;78.51
59055;BME280;44845;51.444;7.460;2022-12-07T09:45:56;99752.13;;;5.39;78.58
59055;BME280;44845;51.444;7.460;2022-12-07T09:48:36;99751.28;;;5.40;78.44
59055;BME280;44845;51.444;7.460;2022-12-07T09:51:15;99744.34;;;5.42;78.50
59055;BME280;44845;51.444;7.460;2022-12-07T09:53:41;99745.25;;;5.44;78.29
59055;BME280;44845;51.444;7.460;2022-12-07T09:56:11;99746.13;;;5.46;78.05
59055;BME280;44845;51.444;7.460;2022-12-07T09:58:38;99750.44;;;5.46;77.96
59055;BME280;44845;51.444;7.460;2022-12-07T10:01:20;99749.63;;;5.48;78.07
59055;BME280;44845;51.444;7.460;2022-12-07T10:03:54;99750.50;;;5.47;78.09
59055;BME280;44845;51.444;7.460;2022-12-07T10:06:20;99740.97;;;5.49;78.09
59055;BME280;44845;51.444;7.460;2022-12-07T10:08:46;99746.03;;;5.37;77.57
59055;BME280;44845;51.444;7.460;2022-12-07T10:11:11;99742.59;;;5.41;77.94
59055;BME280;44845;51.444;7.460;2022-12-07T10:13:45;99738.28;;;5.41;77.97
59055;BME280;44845;51.444;7.460;2022-12-07T10:18:51;99742.63;;;5.44;77.77
59055;BME280;44845;51.444;7.460;2022-12-07T10:21:25;99739.16;;;5.42;77.72
59055;BME280;44845;51.444;7.460;2022-12-07T10:24:05;99740.91;;;5.46;77.81
59055;BME280;44845;51.444;7.460;2022-12-07T10:29:24;99736.78;;;5.64;78.81
59055;BME280;44845;51.444;7.460;2022-12-07T10:34:42;99741.06;;;5.60;77.69
59055;BME280;44845;51.444;7.460;2022-12-07T10:39:45;99734.06;;;5.53;77.70
59055;BME280;44845;51.444;7.460;2022-12-07T10:42:29;99728.88;;;5.55;77.73
59055;BME280;44845;51.444;7.460;2022-12-07T10:45:15;99725.50;;;5.62;77.73
59055;BME280;44845;51.444;7.460;2022-12-07T10:47:51;99716.81;;;5.63;77.96
59055;BME280;44845;51.444;7.460;2022-12-07T10:50:51;99714.28;;;5.68;78.05
59055;BME280;44845;51.444;7.460;2022-12-07T10:53:31;99711.69;;;5.71;77.84
59055;BME280;44845;51.444;7.460;2022-12-07T10:59:08;99704.72;;;5.65;77.77
59055;BME280;44845;51.444;7.460;2022-12-07T11:01:54;99704.75;;;5.71;77.72
59055;BME280;44845;51.444;7.460;2022-12-07T11:04:36;99706.53;;;5.75;77.90
59055;BME280;44845;51.444;7.460;2022-12-07T11:07:32;99705.69;;;5.78;77.98
59055;BME280;44845;51.444;7.460;2022-12-07T11:10:29;99700.53;;;5.83;76.80
59055;BME280;44845;51.444;7.460;2022-12-07T11:15:26;99695.31;;;5.83;77.25
59055;BME280;44845;51.444;7.460;2022-12-07T11:18:21;99684.91;;;5.81;76.48
59055;BME280;44845;51.444;7.460;2022-12-07T11:38:21;99671.13;;;5.92;77.21
59055;BME280;44845;51.444;7.460;2022-12-07T11:40:54;99665.94;;;5.96;76.34
59055;BME280;44845;51.444;7.460;2022-12-07T11:43:41;99658.97;;;5.94;76.68
59055;BME280;44845;51.444;7.460;2022-12-07T11:46:12;99654.69;;;5.99;76.10
59055;BME280;44845;51.444;7.460;2022-12-07T11:48:58;99656.41;;;6.00;76.11
59055;BME280;44845;51.444;7.460;2022-12-07T11:51:28;99661.66;;;6.02;76.51
59055;BME280;44845;51.444;7.460;2022-12-07T11:54:01;99656.44;;;6.02;76.72
59055;BME280;44845;51.444;7.460;2022-12-07T11:56:29;99656.44;;;6.02;76.41
59055;BME280;44845;51.444;7.460;2022-12-07T12:01:45;99649.53;;;6.04;76.97
59055;BME280;44845;51.444;7.460;2022-12-07T12:06:51;99653.84;;;6.05;76.47
59055;BME280;44845;51.444;7.460;2022-12-07T12:09:23;99657.28;;;6.01;76.47
59055;BME280;44845;51.444;7.460;2022-12-07T12:15:55;99652.13;;;6.04;75.78
59055;BME280;44845;51.444;7.460;2022-12-07T12:21:29;99652.13;;;6.04;75.88
59055;BME280;44845;51.444;7.460;2022-12-07T12:26:33;99634.72;;;5.98;75.43
59055;BME280;44845;51.444;7.460;2022-12-07T12:29:02;99639.06;;;6.01;74.48
59055;BME280;44845;51.444;7.460;2022-12-07T12:31:38;99639.09;;;6.04;75.24
59055;BME280;44845;51.444;7.460;2022-12-07T12:36:55;99631.34;;;6.08;75.34
59055;BME280;44845;51.444;7.460;2022-12-07T12:39:22;99638.22;;;6.05;75.01
59055;BME280;44845;51.444;7.460;2022-12-07T12:47:01;99627.88;;;6.10;74.39
59055;BME280;44845;51.444;7.460;2022-12-07T12:49:40;99623.53;;;6.10;73.25
59055;BME280;44845;51.444;7.460;2022-12-07T12:54:58;99615.78;;;6.16;73.86
59055;BME280;44845;51.444;7.460;2022-12-07T12:57:28;99614.88;;;6.13;73.02
59055;BME280;44845;51.444;7.460;2022-12-07T13:02:21;99618.34;;;6.10;74.18
59055;BME280;44845;51.444;7.460;2022-12-07T13:05:01;99615.72;;;6.10;74.46
59055;BME280;44845;51.444;7.460;2022-12-07T13:10:22;99606.19;;;6.12;73.26
59055;BME280;44845;51.444;7.460;2022-12-07T13:29:15;99598.41;;;6.14;74.84
59055;BME280;44845;51.444;7.460;2022-12-07T13:31:49;99592.31;;;6.07;75.38
59055;BME280;44845;51.444;7.460;2022-12-07T13:36:55;99597.50;;;6.10;75.82
59055;BME280;44845;51.444;7.460;2022-12-07T13:39:23;99593.19;;;6.11;74.82
59055;BME280;44845;51.444;7.460;2022-12-07T13:41:54;99580.16;;;6.11;74.96
59055;BME280;44845;51.444;7.460;2022-12-07T13:44:21;99577.56;;;6.11;75.63
59055;BME280;44845;51.444;7.460;2022-12-07T13:49:39;99569.69;;;6.06;75.83
59055;BME280;44845;51.444;7.460;2022-12-07T13:52:25;99566.25;;;6.10;76.10
59055;BME280;44845;51.444;7.460;2022-12-07T13:57:29;99567.97;;;6.06;76.09
59055;BME280;44845;51.444;7.460;2022-12-07T13:59:56;99563.59;;;6.04;76.53
59055;BME280;44845;51.444;7.460;2022-12-07T14:02:26;99564.47;;;6.06;76.37
59055;BME280;44845;51.444;7.460;2022-12-07T14:05:05;99561.00;;;6.05;76.48
59055;BME280;44845;51.444;7.460;2022-12-07T14:07:33;99557.50;;;6.05;76.31
59055;BME280;44845;51.444;7.460;2022-12-07T14:10:01;99551.44;;;6.03;76.32
59055;BME280;44845;51.444;7.460;2022-12-07T14:12:29;99554.91;;;6.05;76.20
59055;BME280;44845;51.444;7.460;2022-12-07T14:14:55;99540.16;;;6.04;76.41
59055;BME280;44845;51.444;7.460;2022-12-07T14:17:24;99543.63;;;6.03;76.23
59055;BME280;44845;51.444;7.460;2022-12-07T14:22:29;99544.47;;;6.00;76.82
59055;BME280;44845;51.444;7.460;2022-12-07T14:25:18;99554.00;;;5.96;76.94
59055;BME280;44845;51.444;7.460;2022-12-07T14:27:59;99547.94;;;5.97;76.75
59055;BME280;44845;51.444;7.460;2022-12-07T14:30:30;99553.13;;;5.94;77.10
59055;BME280;44845;51.444;7.460;2022-12-07T14:33:03;99553.97;;;5.93;77.12
59055;BME280;44845;51.444;7.460;2022-12-07T14:35:30;99545.31;;;5.91;76.78
59055;BME280;44845;51.444;7.460;2022-12-07T14:37:56;99553.06;;;5.83;75.64
59055;BME280;44845;51.444;7.460;2022-12-07T14:40:27;99553.00;;;5.75;75.76
59055;BME280;44845;51.444;7.460;2022-12-07T14:42:57;99549.44;;;5.62;75.45
59055;BME280;44845;51.444;7.460;2022-12-07T14:45:23;99545.09;;;5.60;75.67
59055;BME280;44845;51.444;7.460;2022-12-07T14:47:48;99544.16;;;5.51;75.76
59055;BME280;44845;51.444;7.460;2022-12-07T14:50:18;99549.31;;;5.45;76.08
59055;BME280;44845;51.444;7.460;2022-12-07T14:52:47;99541.44;;;5.39;76.37
59055;BME280;44845;51.444;7.460;2022-12-07T14:55:19;99543.13;;;5.31;76.93
59055;BME280;44845;51.444;7.460;2022-12-07T14:57:45;99547.41;;;5.25;76.63
59055;BME280;44845;51.444;7.460;2022-12-07T15:00:14;99538.69;;;5.22;76.59
59055;BME280;44845;51.444;7.460;2022-12-07T15:02:39;99536.03;;;5.14;76.34
59055;BME280;44845;51.444;7.460;2022-12-07T15:05:05;99533.41;;;5.12;76.64
59055;BME280;44845;51.444;7.460;2022-12-07T15:07:30;99531.56;;;4.99;77.22
59055;BME280;44845;51.444;7.460;2022-12-07T15:09:55;99528.13;;;5.03;76.58
59055;BME280;44845;51.444;7.460;2022-12-07T15:12:21;99524.56;;;4.94;76.43
59055;BME280;44845;51.444;7.460;2022-12-07T15:14:46;99532.28;;;4.83;76.71
59055;BME280;44845;51.444;7.460;2022-12-07T15:17:12;99525.31;;;4.81;76.85